Weather observations for the past three days for
Front Royal-warren County Airport
| Date | Time (edt) | Wind (mph) | Vis. (mi.) | Weather | Sky Cond. | Temperature (ºF) | Relative Humidity | Wind Chill (°F) | Heat Index (°F) | Pressure | Precipitation (in) | ||||||
|---|---|---|---|---|---|---|---|---|---|---|---|---|---|---|---|---|---|
| Air | Dwpt | 6 hour | altimeter (in) | sea level (mb) | 1 hr | 3 hr | 6 hr | ||||||||||
| Max. | Min. | ||||||||||||||||
| 30 | 23:55 | Calm | 10.00 | Fair | CLR | 0 | 0 | 0% | 30.11 | 0.0 | |||||||
| 30 | 23:35 | Calm | 10.00 | Fair | CLR | 0 | 0 | 0% | 30.11 | 0.0 | |||||||
| 30 | 23:15 | Calm | 10.00 | Fair | CLR | 72.1 | 69.6 | 92% | 30.11 | 0.0 | |||||||
| 30 | 22:55 | Calm | 10.00 | Fair | CLR | 0 | 0 | 0% | 30.11 | 0.0 | |||||||
| 30 | 22:15 | S 3 | 10.00 | Fair | CLR | 74.5 | 69.4 | 84% | 30.11 | 0.0 | |||||||
| 30 | 21:55 | S 5 | 10.00 | Partly Cloudy | SCT065 | 0 | 0 | 0% | 30.11 | 0.0 | |||||||
| 30 | 21:35 | S 3 | 10.00 | Partly Cloudy | SCT065 | 74.7 | 69.1 | 83% | 30.11 | 0.0 | |||||||
| 30 | 21:15 | S 5 | 10.00 | Partly Cloudy | SCT065 | 74.7 | 68.4 | 81% | 30.11 | 0.0 | |||||||
| 30 | 20:55 | S 3 | 10.00 | Partly Cloudy | SCT065 SCT085 SCT110 | 74.5 | 68 | 80% | 30.11 | 0.0 | |||||||
| 30 | 20:35 | Calm | 10.00 | Partly Cloudy | SCT100 | 76.3 | 67.5 | 74% | 78 | 30.09 | 0.0 | ||||||
| 30 | 20:15 | Calm | 10.00 | Partly Cloudy | SCT090 | 75.9 | 67.6 | 76% | 77 | 30.08 | 0.0 | ||||||
| 30 | 19:55 | S 3 | 10.00 | Fair | CLR | 77.4 | 67.8 | 73% | 79 | 30.08 | 0.0 | ||||||
| 30 | 19:35 | Calm | 10.00 | Fair | CLR | 77.5 | 68 | 73% | 79 | 30.08 | 0.0 | ||||||
| 30 | 19:15 | Calm | 10.00 | Fair | CLR | 79.2 | 68.2 | 69% | 82 | 30.08 | 0.0 | ||||||
| 30 | 18:55 | Calm | 10.00 | Fair | CLR | 0 | 0 | 0% | 30.09 | 0.0 | |||||||
| 30 | 18:35 | S 3 | 10.00 | Partly Cloudy | SCT120 | 83.8 | 70.7 | 65% | 89 | 30.09 | 0.0 | ||||||
| 30 | 18:15 | Calm | 10.00 | Partly Cloudy | SCT120 | 83.5 | 69.3 | 62% | 87 | 30.07 | 0.0 | ||||||
| 30 | 17:55 | N 3 | 10.00 | Partly Cloudy | SCT110 | 81.7 | 69.4 | 67% | 85 | 30.08 | 0.0 | ||||||
| 30 | 17:35 | NW 5 | 10.00 | Overcast | SCT040 BKN050 OVC110 | 80.6 | 69.1 | 68% | 84 | 30.08 | 0.0 | ||||||
| 30 | 17:15 | Calm | 10.00 | Mostly Cloudy | SCT039 SCT050 BKN070 | 0 | 0 | 0% | 30.08 | 0.0 | |||||||
| 30 | 16:55 | Calm | 10.00 | Partly Cloudy | SCT120 | 0 | 0 | 0% | 30.06 | 0.0 | |||||||
| 30 | 16:35 | S 6 | 10.00 | Overcast | OVC110 | 87.1 | 70.7 | 58% | 93 | 30.07 | 0.0 | ||||||
| 30 | 16:15 | Calm | 10.00 | Overcast | OVC110 | 84.2 | 70.3 | 63% | 89 | 30.07 | 0.0 | ||||||
| 30 | 15:55 | SW 5 | 10.00 | Overcast | OVC095 | 82.4 | 69.4 | 65% | 86 | 30.07 | 0.0 | ||||||
| 30 | 15:35 | W 6 | 10.00 | Overcast | SCT022 BKN085 OVC110 | 83.7 | 68 | 59% | 87 | 30.09 | 0.0 | ||||||
| 30 | 15:15 | SW 8 | 10.00 | Overcast | SCT060 BKN095 OVC110 | 0 | 0 | 0% | 30.09 | 0.0 | |||||||
| 30 | 14:55 | SW 3 | 10.00 | Overcast | SCT050 SCT070 OVC110 | 0 | 0 | 0% | 30.09 | 0.0 | |||||||
| 30 | 14:35 | S 8 | 10.00 | Overcast | SCT060 OVC100 | 0 | 0 | 0% | 30.1 | 0.0 | |||||||
| 30 | 14:15 | S 7 | 10.00 | Mostly Cloudy | BKN100 | 87.8 | 69.6 | 55% | 93 | 30.11 | 0.0 | ||||||
| 30 | 13:55 | S 5 | 10.00 | Partly Cloudy | SCT090 | 89.4 | 69.6 | 52% | 94 | 30.11 | 0.0 | ||||||
| 30 | 13:35 | S 6 | 10.00 | Partly Cloudy | SCT090 | 88.9 | 69.8 | 53% | 94 | 30.12 | 0.0 | ||||||
| 30 | 13:15 | SW 5 | 10.00 | Fair | CLR | 88.9 | 69.8 | 53% | 94 | 30.13 | 0.0 | ||||||
| 30 | 12:55 | Calm | 10.00 | Fair | CLR | 86.9 | 69.1 | 55% | 91 | 30.14 | 0.0 | ||||||
| 30 | 12:35 | S 7 | 10.00 | Partly Cloudy | SCT100 | 86.5 | 69.8 | 58% | 91 | 30.14 | 0.0 | ||||||
| 30 | 12:15 | S 6 | 10.00 | Partly Cloudy | SCT100 | 86.5 | 69.6 | 57% | 91 | 30.15 | 0.0 | ||||||
| 30 | 11:55 | S 9 | 10.00 | Fair | CLR | 85.3 | 70.2 | 61% | 90 | 30.16 | 0.0 | ||||||
| 30 | 11:35 | S 8 | 10.00 | Fair | CLR | 83.7 | 69.8 | 63% | 88 | 30.16 | 0.0 | ||||||
| 30 | 11:15 | SW 7 | 10.00 | Fair | CLR | 82.8 | 69.4 | 64% | 86 | 30.16 | 0.0 | ||||||
| 30 | 10:55 | S 8 | 10.00 | Partly Cloudy | SCT085 | 81.7 | 69.8 | 67% | 85 | 30.16 | 0.0 | ||||||
| 30 | 10:35 | S 8 | 10.00 | Mostly Cloudy | SCT080 BKN085 | 0 | 0 | 0% | 30.16 | 0.0 | |||||||
| 30 | 10:15 | Calm | 10.00 | Mostly Cloudy | SCT070 BKN075 | 0 | 0 | 0% | 30.16 | 0.0 | |||||||
| 30 | 09:55 | S 3 | 10.00 | Mostly Cloudy | SCT060 BKN070 | 0 | 0 | 0% | 30.17 | 0.0 | |||||||
| 30 | 09:35 | S 5 | 10.00 | Mostly Cloudy | SCT060 BKN070 BKN110 | 0 | 0 | 0% | 30.17 | 0.0 | |||||||
| 30 | 09:15 | SW 5 | 10.00 | Overcast | SCT060 BKN065 OVC075 | 0 | 0 | 0% | 30.18 | 0.0 | |||||||
| 30 | 08:55 | S 3 | 10.00 | Overcast | BKN060 BKN075 OVC095 | 0 | 0 | 0% | 30.18 | 0.0 | |||||||
| 30 | 08:35 | Calm | 10.00 | Mostly Cloudy | BKN075 BKN085 | 0 | 0 | 0% | 30.18 | 0.0 | |||||||
| 30 | 08:15 | SE 3 | 10.00 | Partly Cloudy | SCT075 SCT085 | 0 | 0 | 0% | 30.18 | 0.0 | |||||||
| 30 | 07:55 | S 5 | 10.00 | Partly Cloudy | SCT085 | 0 | 0 | 0% | 30.18 | 0.0 | |||||||
| 30 | 07:15 | Calm | 7.00 | Mostly Cloudy | BKN090 | 0 | 0 | 0% | 30.18 | 0.0 | |||||||
| 30 | 06:35 | S 3 | 10.00 | Partly Cloudy | SCT090 | 0 | 0 | 0% | 30.17 | 0.0 | |||||||
| 30 | 05:55 | S 3 | 3.00 | Fog/Mist | SCT003 | 0 | 0 | 0% | 30.18 | 0.0 | |||||||
| 30 | 04:35 | Calm | 5.00 | Fair with Haze | CLR | 0 | 0 | 0% | 30.18 | 0.0 | |||||||
| 30 | 03:55 | Calm | 10.00 | Fair | CLR | 0 | 0 | 0% | 30.18 | 0.0 | |||||||
| 30 | 03:15 | S 3 | 10.00 | Partly Cloudy | SCT095 | 0 | 0 | 0% | 30.18 | 0.0 | |||||||
| 30 | 02:15 | Calm | 10.00 | Overcast | OVC085 | 0 | 0 | 0% | 30.2 | 0.0 | |||||||
| 30 | 01:55 | S 3 | 10.00 | Overcast | OVC085 | 0 | 0 | 0% | 30.2 | 0.0 | |||||||
| 30 | 01:35 | Calm | 10.00 | Overcast | OVC085 | 0 | 0 | 0% | 30.2 | 0.0 | |||||||
| 30 | 01:15 | Calm | 10.00 | Mostly Cloudy | BKN075 | 0 | 0 | 0% | 30.21 | 0.0 | |||||||
| 30 | 00:55 | Calm | 10.00 | Partly Cloudy | SCT075 | 0 | 0 | 0% | 30.2 | 0.0 | |||||||
| 30 | 00:35 | Calm | 10.00 | Fair | CLR | 0 | 0 | 0% | 30.19 | 0.0 | |||||||
| 30 | 00:15 | Calm | 10.00 | Partly Cloudy | SCT075 | 0 | 0 | 0% | 30.19 | 0.0 | |||||||
| 29 | 23:35 | Calm | 10.00 | Fair | CLR | 0 | 0 | 0% | 30.19 | 0.0 | |||||||
| 29 | 22:55 | Calm | 10.00 | Fair | CLR | 0 | 0 | 0% | 30.19 | 0.0 | |||||||
| 29 | 22:35 | Calm | 10.00 | Fair | CLR | 0 | 0 | 0% | 30.19 | 0.0 | |||||||
| 29 | 22:15 | Calm | 10.00 | Partly Cloudy | SCT075 | 0 | 0 | 0% | 30.2 | 0.0 | |||||||
| 29 | 21:55 | Calm | 10.00 | Mostly Cloudy | SCT050 BKN075 | 0 | 0 | 0% | 30.19 | 0.0 | |||||||
| 29 | 21:35 | Calm | 10.00 | Mostly Cloudy | SCT050 BKN075 | 0 | 0 | 0% | 30.19 | 0.0 | |||||||
| 29 | 21:15 | Calm | 10.00 | Fair | CLR | 0 | 0 | 0% | 30.19 | 0.0 | |||||||
| 29 | 20:55 | W 3 | 10.00 | Fair | CLR | 0 | 0 | 0% | 30.18 | 0.0 | |||||||
| 29 | 19:35 | Calm | 10.00 | Fair | CLR | 0 | 0 | 0% | 30.17 | 0.0 | |||||||
| 29 | 19:15 | Calm | 10.00 | Fair | CLR | 0 | 0 | 0% | 30.17 | 0.0 | |||||||
| 29 | 18:55 | Calm | 10.00 | Fair | CLR | 0 | 0 | 0% | 30.17 | 0.0 | |||||||
| 29 | 18:35 | Calm | 10.00 | Partly Cloudy | SCT039 | 0 | 0 | 0% | 30.17 | 0.0 | |||||||
| 29 | 18:15 | SE 3 | 10.00 | Partly Cloudy | SCT039 SCT080 | 0 | 0 | 0% | 30.18 | 0.0 | |||||||
| 29 | 17:55 | E 3 | 10.00 | Mostly Cloudy | SCT041 BKN080 | 0 | 0 | 0% | 30.18 | 0.0 | |||||||
| 29 | 17:35 | E 3 | 10.00 | Overcast | OVC041 | 0 | 0 | 0% | 30.18 | 0.0 | |||||||
| 29 | 17:15 | SE 5 | 10.00 | Mostly Cloudy | BKN041 | 0 | 0 | 0% | 30.18 | 0.0 | |||||||
| 29 | 16:55 | E 5 | 10.00 | Partly Cloudy | SCT043 | 0 | 0 | 0% | 30.18 | 0.0 | |||||||
| 29 | 16:35 | SE 3 | 10.00 | Partly Cloudy | SCT049 | 0 | 0 | 0% | 30.18 | 0.0 | |||||||
| 29 | 16:15 | Calm | 10.00 | Mostly Cloudy | BKN049 | 0 | 0 | 0% | 30.19 | 0.0 | |||||||
| 29 | 15:55 | SE 3 | 10.00 | Mostly Cloudy | BKN047 | 0 | 0 | 0% | 30.2 | 0.0 | |||||||
| 29 | 15:35 | Calm | 10.00 | Mostly Cloudy | BKN043 | 0 | 0 | 0% | 30.21 | 0.0 | |||||||
| 29 | 15:15 | S 3 | 10.00 | Partly Cloudy | SCT041 | 0 | 0 | 0% | 30.21 | 0.0 | |||||||
| 29 | 14:55 | NE 5 | 10.00 | Fair | CLR | 0 | 0 | 0% | 30.22 | 0.0 | |||||||
| 29 | 14:35 | Calm | 10.00 | Fair | CLR | 0 | 0 | 0% | 30.23 | 0.0 | |||||||
| 29 | 14:15 | Calm | 10.00 | Fair | CLR | 0 | 0 | 0% | 30.24 | 0.0 | |||||||
| 29 | 13:55 | E 5 | 10.00 | Partly Cloudy | SCT050 | 0 | 0 | 0% | 30.24 | 0.0 | |||||||
| 29 | 13:35 | Calm | 10.00 | Overcast | BKN050 OVC070 | 0 | 0 | 0% | 30.25 | 0.0 | |||||||
| 29 | 12:15 | Calm | 10.00 | Overcast | BKN055 OVC075 | 0 | 0 | 0% | 30.27 | 0.0 | |||||||
| 29 | 11:55 | NE 3 | 10.00 | Mostly Cloudy | BKN055 BKN075 BKN090 | 0 | 0 | 0% | 30.27 | 0.0 | |||||||
| 29 | 11:35 | N 3 | 10.00 | Mostly Cloudy | BKN055 BKN065 BKN090 | 0 | 0 | 0% | 30.27 | 0.0 | |||||||
| 29 | 11:15 | Calm | 10.00 | Mostly Cloudy | SCT060 BKN065 BKN075 | 0 | 0 | 0% | 30.27 | 0.0 | |||||||
| 29 | 10:55 | NE 3 | 10.00 | Mostly Cloudy | BKN060 BKN075 BKN085 | 0 | 0 | 0% | 30.27 | 0.0 | |||||||
| 29 | 10:35 | Calm | 10.00 | Overcast | OVC060 | 0 | 0 | 0% | 30.27 | 0.0 | |||||||
| 29 | 09:55 | Calm | 10.00 | Mostly Cloudy | BKN070 BKN080 | 0 | 0 | 0% | 30.26 | 0.0 | |||||||
| 29 | 09:35 | NE 3 | 10.00 | Partly Cloudy | SCT070 SCT080 | 0 | 0 | 0% | 30.26 | 0.0 | |||||||
| 29 | 09:15 | E 3 | 10.00 | Mostly Cloudy | BKN060 | 0 | 0 | 0% | 30.26 | 0.0 | |||||||
| 29 | 03:35 | Calm | 7.00 | Fair | CLR | 0 | 0 | 0% | 30.17 | 0.0 | |||||||
| 29 | 01:55 | Calm | 7.00 | Fair | CLR | 0 | 0 | 0% | 30.16 | 0.0 | |||||||
| 29 | 00:55 | Calm | 10.00 | Fair | CLR | 0 | 0 | 0% | 30.15 | 0.0 | |||||||
| 28 | 23:35 | Calm | 10.00 | Fair | CLR | 0 | 0 | 0% | 30.13 | 0.0 | |||||||
| 28 | 23:15 | Calm | 10.00 | Partly Cloudy | SCT060 | 0 | 0 | 0% | 30.13 | 0.0 | |||||||
| 28 | 22:55 | Calm | 10.00 | Mostly Cloudy | BKN060 | 0 | 0 | 0% | 30.13 | 0.0 | |||||||
| 28 | 18:15 | NE 5 | 10.00 | Mostly Cloudy | SCT060 SCT075 BKN095 | 0 | 0 | 0% | 30.04 | 0.0 | |||||||
| 28 | 17:15 | Calm | 10.00 | Mostly Cloudy | BKN110 | 0 | 0 | 0% | 30.03 | 0.0 | |||||||
| 28 | 16:15 | NW 6 | 10.00 | Mostly Cloudy | SCT050 SCT065 BKN100 | 0 | 0 | 0% | 30.02 | 0.0 | |||||||
| 28 | 15:55 | N 5 | 10.00 | Mostly Cloudy | SCT050 SCT070 BKN085 | 0 | 0 | 0% | 30.02 | 0.0 | |||||||
| 28 | 15:35 | NE 7 | 10.00 | Partly Cloudy | SCT050 SCT070 | 0 | 0 | 0% | 30.02 | 0.0 | |||||||
| 28 | 15:15 | N 7 | 10.00 | Fair | CLR | 0 | 0 | 0% | 30.02 | 0.0 | |||||||
| 28 | 14:55 | NW 6 | 10.00 | Partly Cloudy | SCT050 | 0 | 0 | 0% | 30.02 | 0.0 | |||||||
| 28 | 14:35 | NW 5 | 10.00 | Partly Cloudy | SCT050 | 0 | 0 | 0% | 30.04 | 0.0 | |||||||
| 28 | 14:15 | NE 5 | 10.00 | Partly Cloudy | SCT047 SCT090 | 0 | 0 | 0% | 30.04 | 0.0 | |||||||
| 28 | 13:55 | N 6 | 10.00 | Partly Cloudy | SCT047 SCT090 | 0 | 0 | 0% | 30.04 | 0.0 | |||||||
| 28 | 13:35 | NW 8 | 10.00 | Partly Cloudy | SCT090 | 0 | 0 | 0% | 30.05 | 0.0 | |||||||
| 28 | 13:15 | Calm | 10.00 | Fair | CLR | 0 | 0 | 0% | 30.05 | 0.0 | |||||||
| 28 | 12:55 | N 5 | 10.00 | Fair | CLR | 0 | 0 | 0% | 30.06 | 0.0 | |||||||
| 28 | 12:35 | N 7 | 10.00 | Partly Cloudy | SCT032 SCT039 SCT070 | 0 | 0 | 0% | 30.06 | 0.0 | |||||||
| 28 | 12:15 | NW 6 | 10.00 | Partly Cloudy | SCT032 | 0 | 0 | 0% | 30.06 | 0.0 | |||||||
| 28 | 11:55 | NW 6 | 10.00 | Fair | CLR | 0 | 0 | 0% | 30.06 | 0.0 | |||||||
| 28 | 11:35 | NW 5 | 10.00 | Partly Cloudy | SCT095 | 0 | 0 | 0% | 30.07 | 0.0 | |||||||
| 28 | 11:15 | N 5 | 10.00 | Mostly Cloudy | BKN095 | 0 | 0 | 0% | 30.07 | 0.0 | |||||||
| 28 | 10:55 | N 5 | 10.00 | Fair | CLR | 0 | 0 | 0% | 30.07 | 0.0 | |||||||
| 28 | 10:35 | Calm | 10.00 | Fair | CLR | 0 | 0 | 0% | 30.06 | 0.0 | |||||||
| 28 | 09:55 | Calm | 10.00 | Partly Cloudy | SCT060 | 0 | 0 | 0% | 30.06 | 0.0 | |||||||
| 28 | 09:35 | Calm | 10.00 | Partly Cloudy | SCT060 | 0 | 0 | 0% | 30.05 | 0.0 | |||||||
| 28 | 09:15 | Calm | 10.00 | Partly Cloudy | SCT060 | 0 | 0 | 0% | 30.05 | 0.0 | |||||||
| 28 | 08:55 | SW 3 | 10.00 | Fair | CLR | 0 | 0 | 0% | 30.04 | 0.0 | |||||||
| 28 | 07:55 | Calm | 10.00 | Fair | CLR | 0 | 0 | 0% | 30.02 | 0.0 | |||||||
| 28 | 06:15 | Calm | 10.00 | Fair | CLR | 0 | 0 | 0% | 29.97 | 0.0 | |||||||
| 28 | 05:35 | Calm | 10.00 | Partly Cloudy | SCT060 | 0 | 0 | 0% | 29.97 | 0.0 | |||||||
| 28 | 05:15 | Calm | 10.00 | Partly Cloudy | SCT060 | 0 | 0 | 0% | 29.96 | 0.0 | |||||||
| 28 | 04:35 | S 5 | 10.00 | Fair | CLR | 0 | 0 | 0% | 29.96 | 0.0 | |||||||
| 28 | 04:15 | S 3 | 10.00 | Fair | CLR | 0 | 0 | 0% | 29.97 | 0.0 | |||||||
| 28 | 03:35 | Calm | 10.00 | Partly Cloudy | SCT060 | 0 | 0 | 0% | 29.98 | 0.0 | |||||||
| 28 | 03:15 | Calm | 10.00 | Fair | CLR | 0 | 0 | 0% | 29.97 | 0.0 | |||||||
| 28 | 02:55 | SW 3 | 10.00 | Fair | CLR | 0 | 0 | 0% | 29.97 | 0.0 | |||||||
| 28 | 02:15 | S 3 | 10.00 | Fair | CLR | 0 | 0 | 0% | 29.97 | 0.0 | |||||||
| 28 | 01:55 | S 5 | 10.00 | Fair | CLR | 0 | 0 | 0% | 29.97 | 0.0 | 0.01 | ||||||
| 28 | 01:35 | Calm | 10.00 | Fair | CLR | 0 | 0 | 0% | 29.97 | 0.0 | |||||||
| 28 | 01:15 | S 5 | 10.00 | Fair | CLR | 0 | 0 | 0% | 29.98 | 0.0 | |||||||
| 28 | 00:55 | S 3 | 10.00 | Fair | CLR | 0 | 0 | 0% | 29.97 | 0.0 | |||||||
| Date | Time (edt) | Wind (mph) | Vis. (mi.) | Weather | Sky Cond. | Air | Dwpt | Max. | Min. | Relative Humidity | Wind Chill (°F) | Heat Index (°F) | altimeter (in) | sea level (mb) | 1 hr | 3 hr | 6 hr |
| 6 hour | |||||||||||||||||
| Temperature (ºF) | Pressure | Precipitation (in) | |||||||||||||||